Time;durP1;ratioP1;P1;durP2;ratioP2;P2;SDS_P1;SDS_P2;PMS_P1;PMS_P2;Temp;Humidity;BMP_temperature;BMP_pressure;BME280_temperature;BME280_humidity;BME280_pressure;Samples;Min_cycle;Max_cycle;Signal;HPM_P1;HPM_P2
2021/09/09 00:09:45;;;;;;;14.13;12.73;;;;;;;11.96;100.00;100958.47;20737526;28;20230;-58
2021/09/09 00:19:48;;;;;;;18.10;15.50;;;;;;;11.74;100.00;100964.19;20731458;28;20234;-58
2021/09/09 00:29:56;;;;;;;18.30;15.23;;;;;;;11.65;100.00;100960.25;20719245;28;20226;-58
2021/09/09 00:39:59;;;;;;;15.57;13.97;;;;;;;11.69;100.00;100961.81;20735227;28;20696;-59
2021/09/09 00:50:04;;;;;;;15.73;13.67;;;;;;;11.70;100.00;100965.34;20712236;28;20643;-57
2021/09/09 01:00:07;;;;;;;16.33;14.77;;;;;;;11.62;100.00;100957.75;20733869;28;20236;-58
2021/09/09 01:10:11;;;;;;;18.83;16.83;;;;;;;11.71;100.00;100954.53;20710713;28;20280;-62
2021/09/09 01:20:15;;;;;;;21.87;18.03;;;;;;;11.83;100.00;100951.16;20731996;28;20260;-58
2021/09/09 01:30:18;;;;;;;17.80;15.93;;;;;;;11.80;100.00;100959.41;20715683;28;20586;-58
2021/09/09 01:40:28;;;;;;;22.23;18.83;;;;;;;11.89;100.00;100956.16;20742621;28;20233;-58
2021/09/09 01:50:32;;;;;;;21.73;19.43;;;;;;;11.95;100.00;100957.63;20803487;28;20224;-58
2021/09/09 02:00:34;;;;;;;19.00;17.10;;;;;;;11.97;100.00;100952.16;20796576;28;20270;-58
2021/09/09 02:10:39;;;;;;;22.40;20.03;;;;;;;11.92;100.00;100956.94;20809476;28;20251;-59
2021/09/09 02:20:41;;;;;;;19.33;17.20;;;;;;;11.87;100.00;100942.00;20781415;28;20222;-58
2021/09/09 02:30:45;;;;;;;21.90;18.57;;;;;;;11.88;100.00;100941.06;20810193;28;20665;-58
2021/09/09 02:40:48;;;;;;;21.00;18.80;;;;;;;11.84;100.00;100931.50;20788120;28;20337;-58
2021/09/09 02:50:51;;;;;;;18.93;17.00;;;;;;;11.82;100.00;100928.06;20806369;28;20228;-58
2021/09/09 03:00:53;;;;;;;18.60;16.70;;;;;;;11.75;100.00;100923.13;20717647;28;20989;-58
2021/09/09 03:10:58;;;;;;;17.67;15.77;;;;;;;11.68;100.00;100922.66;20723514;28;20232;-58
2021/09/09 03:21:00;;;;;;;19.30;17.17;;;;;;;11.65;100.00;100933.50;20715497;28;20653;-62
2021/09/09 03:31:04;;;;;;;18.13;16.27;;;;;;;11.53;100.00;100928.91;20715587;28;20236;-60
2021/09/09 03:41:08;;;;;;;19.93;17.80;;;;;;;11.47;100.00;100929.25;20735780;28;20702;-58
2021/09/09 03:51:12;;;;;;;20.90;18.63;;;;;;;11.42;100.00;100931.31;20721411;28;20228;-59
2021/09/09 04:01:14;;;;;;;18.87;16.97;;;;;;;11.44;100.00;100929.44;20739218;28;20256;-59
2021/09/09 04:11:18;;;;;;;22.50;18.97;;;;;;;11.45;100.00;100925.81;20792093;28;20243;-59
2021/09/09 04:21:20;;;;;;;21.97;19.53;;;;;;;11.56;100.00;100918.03;20818739;28;20779;-58
2021/09/09 04:31:24;;;;;;;20.10;18.17;;;;;;;11.92;100.00;100919.50;20797333;28;20231;-58
2021/09/09 04:41:26;;;;;;;20.47;18.40;;;;;;;12.20;100.00;100930.22;20815318;28;20248;-58
2021/09/09 04:51:32;;;;;;;20.30;18.20;;;;;;;12.46;100.00;100932.16;20798736;28;20610;-67
2021/09/09 05:01:35;;;;;;;18.07;16.17;;;;;;;12.77;100.00;100927.56;20729032;28;20229;-58
2021/09/09 05:11:39;;;;;;;21.83;19.53;;;;;;;13.12;100.00;100925.28;20761114;28;20257;-60
2021/09/09 05:21:41;;;;;;;21.07;18.97;;;;;;;13.55;100.00;100913.47;20788574;28;20235;-59
2021/09/09 05:31:45;;;;;;;16.53;15.03;;;;;;;14.03;100.00;100914.63;20810785;28;20221;-59
2021/09/09 05:41:47;;;;;;;15.27;12.67;;;;;;;14.50;100.00;100896.16;20788547;28;20235;-59
2021/09/09 05:51:51;;;;;;;16.80;15.10;;;;;;;14.99;100.00;100898.84;20811754;28;20289;-59
2021/09/09 06:01:53;;;;;;;13.03;11.83;;;;;;;15.48;100.00;100896.94;20788944;28;20220;-62
2021/09/09 06:11:57;;;;;;;14.17;12.90;;;;;;;15.91;100.00;100899.09;20810865;28;20244;-60
2021/09/09 06:21:59;;;;;;;13.10;11.60;;;;;;;16.32;100.00;100909.28;20794324;28;20924;-66
2021/09/09 06:32:03;;;;;;;12.20;11.17;;;;;;;16.83;100.00;100898.91;20802569;28;20320;-59
2021/09/09 06:42:06;;;;;;;11.10;10.10;;;;;;;17.29;100.00;100901.38;20801201;28;20238;-66
2021/09/09 06:52:09;;;;;;;11.47;10.37;;;;;;;17.97;100.00;100902.84;20795446;28;20251;-61
2021/09/09 07:02:12;;;;;;;10.50;9.50;;;;;;;18.72;100.00;100901.69;20809151;28;20276;-64
2021/09/09 07:12:16;;;;;;;9.63;8.63;;;;;;;19.33;100.00;100904.25;20794292;28;20238;-60
2021/09/09 07:22:18;;;;;;;8.17;7.37;;;;;;;19.96;100.00;100902.88;20823864;28;20819;-60
2021/09/09 07:32:23;;;;;;;9.70;7.80;;;;;;;20.55;100.00;100914.44;20800344;28;20313;-59
2021/09/09 07:42:25;;;;;;;8.33;7.53;;;;;;;21.07;100.00;100911.06;20822287;28;20248;-59
2021/09/09 07:52:29;;;;;;;7.97;7.27;;;;;;;21.63;100.00;100896.41;20804323;28;20285;-59
2021/09/09 08:02:32;;;;;;;8.13;7.40;;;;;;;22.00;100.00;100889.94;20814124;28;20244;-59
2021/09/09 08:12:35;;;;;;;11.03;8.67;;;;;;;22.43;100.00;100905.38;20810288;28;20216;-59
2021/09/09 08:22:38;;;;;;;7.27;6.67;;;;;;;22.78;100.00;100902.53;20805444;28;20232;-60
2021/09/09 08:32:42;;;;;;;7.03;6.43;;;;;;;23.13;95.08;100903.34;20817452;28;20227;-60
2021/09/09 08:42:46;;;;;;;7.50;6.77;;;;;;;23.60;90.57;100900.94;20795839;28;20262;-59
2021/09/09 08:52:51;;;;;;;6.67;6.07;;;;;;;23.92;85.52;100890.03;20817320;28;20319;-59
2021/09/09 09:02:55;;;;;;;6.53;5.90;;;;;;;24.26;84.16;100889.88;20793504;28;20232;-59
2021/09/09 09:12:58;;;;;;;6.27;5.77;;;;;;;24.44;79.40;100892.38;20815052;28;20228;-60
2021/09/09 09:23:10;;;;;;;5.57;5.07;;;;;;;24.80;75.08;100889.19;20796039;28;20729;-60
2021/09/09 09:33:30;;;;;;;5.50;5.10;;;;;;;25.11;64.12;100887.38;20808803;28;20227;-60
2021/09/09 09:43:33;;;;;;;6.00;5.50;;;;;;;25.35;73.20;100873.56;20781634;28;20232;-60
2021/09/09 09:53:37;;;;;;;6.30;5.70;;;;;;;25.65;71.90;100862.78;20802219;28;20623;-60
2021/09/09 10:03:39;;;;;;;5.03;4.57;;;;;;;25.94;71.54;100851.09;20807527;28;20221;-59
2021/09/09 10:13:43;;;;;;;6.20;5.32;;;;;;;26.14;67.41;100846.78;20792839;28;20224;-59
2021/09/09 10:23:45;;;;;;;5.07;4.67;;;;;;;26.33;66.71;100859.94;20810217;28;20305;-59
2021/09/09 10:33:50;;;;;;;6.10;5.57;;;;;;;26.36;64.48;100850.50;20787621;28;20232;-59
2021/09/09 10:43:53;;;;;;;5.88;5.22;;;;;;;26.51;65.93;100829.47;20815229;28;20713;-60
2021/09/09 10:53:58;;;;;;;6.47;5.88;;;;;;;26.61;64.79;100830.00;20806050;28;20274;-59
2021/09/09 11:04:00;;;;;;;5.95;5.32;;;;;;;26.60;62.79;100817.34;20837034;28;20232;-60
2021/09/09 11:14:05;;;;;;;6.22;5.72;;;;;;;26.65;62.79;100806.69;20810581;28;20232;-61
2021/09/09 11:24:10;;;;;;;6.10;5.50;;;;;;;26.72;61.80;100802.13;20813973;28;20290;-60
2021/09/09 11:34:14;;;;;;;5.22;4.82;;;;;;;26.81;61.10;100795.50;20817256;28;20306;-61
2021/09/09 11:44:28;;;;;;;5.68;5.18;;;;;;;26.91;56.90;100778.78;20803747;28;20320;-60
2021/09/09 11:54:32;;;;;;;5.15;4.75;;;;;;;26.89;60.88;100768.03;20820526;28;20228;-59
2021/09/09 12:04:38;;;;;;;4.80;4.35;;;;;;;26.87;59.96;100770.09;20797995;28;21045;-60
2021/09/09 12:14:42;;;;;;;5.05;4.55;;;;;;;26.99;59.67;100759.50;20819790;28;20767;-60
2021/09/09 12:24:44;;;;;;;5.63;4.75;;;;;;;26.94;60.06;100737.31;20796815;28;20234;-60
2021/09/09 12:34:48;;;;;;;5.10;4.70;;;;;;;27.07;60.01;100747.56;20817370;28;20303;-59
2021/09/09 12:44:50;;;;;;;5.60;5.20;;;;;;;26.99;58.40;100755.91;20801913;28;20266;-65
2021/09/09 12:54:54;;;;;;;5.28;4.75;;;;;;;26.96;57.15;100734.38;20814368;28;20220;-60
2021/09/09 13:04:56;;;;;;;5.35;4.65;;;;;;;26.82;57.31;100726.00;20807526;28;20238;-60
2021/09/09 13:15:00;;;;;;;9.20;5.47;;;;;;;26.88;57.35;100719.75;20800712;28;20240;-59
2021/09/09 13:25:03;;;;;;;6.85;4.70;;;;;;;26.86;57.08;100705.41;20812669;28;20228;-60
2021/09/09 13:35:07;;;;;;;4.57;4.22;;;;;;;26.88;57.83;100706.06;20791019;28;20247;-59
2021/09/09 13:45:11;;;;;;;5.05;4.55;;;;;;;26.81;56.94;100701.53;20812507;28;20232;-58
2021/09/09 13:55:14;;;;;;;4.90;4.43;;;;;;;26.68;56.63;100691.31;20787159;28;20224;-59
2021/09/09 14:05:17;;;;;;;5.80;5.18;;;;;;;26.44;56.03;100678.00;20809443;28;20732;-60
2021/09/09 14:15:25;;;;;;;4.90;4.50;;;;;;;26.19;55.55;100671.97;20793410;28;20224;-59
2021/09/09 14:25:28;;;;;;;4.95;4.55;;;;;;;26.13;58.78;100673.56;20803920;28;20720;-60
2021/09/09 14:35:31;;;;;;;5.57;5.07;;;;;;;26.02;59.47;100649.44;20809181;28;20274;-59
2021/09/09 14:45:34;;;;;;;6.78;4.30;;;;;;;25.92;60.53;100640.69;20819094;28;20728;-60
2021/09/09 14:55:38;;;;;;;4.90;4.40;;;;;;;25.71;60.14;100643.34;20821037;28;20250;-60
2021/09/09 15:05:43;;;;;;;4.80;4.40;;;;;;;25.49;60.70;100626.78;20810683;28;20259;-59
2021/09/09 15:15:47;;;;;;;6.73;4.23;;;;;;;25.27;62.34;100625.00;20790355;28;20247;-59
2021/09/09 15:25:49;;;;;;;5.20;4.73;;;;;;;25.05;62.90;100612.25;20804803;28;20251;-58
2021/09/09 15:35:53;;;;;;;6.00;5.50;;;;;;;24.71;62.63;100608.06;20797359;28;20239;-64
2021/09/09 15:45:55;;;;;;;5.30;4.80;;;;;;;24.38;63.31;100585.66;20821126;28;20302;-59
2021/09/09 15:55:59;;;;;;;5.63;5.10;;;;;;;24.01;63.92;100582.78;20800095;28;20217;-59
2021/09/09 16:06:01;;;;;;;4.80;4.40;;;;;;;23.57;66.76;100568.84;20819457;28;20236;-59
2021/09/09 16:16:06;;;;;;;5.40;4.90;;;;;;;23.05;67.74;100563.88;20804490;28;20228;-62
2021/09/09 16:26:09;;;;;;;4.80;4.33;;;;;;;22.47;70.97;100564.91;20811034;28;20256;-58
2021/09/09 16:36:15;;;;;;;5.57;3.80;;;;;;;21.76;74.29;100551.81;20809869;28;20290;-60
2021/09/09 16:46:18;;;;;;;6.97;4.50;;;;;;;21.02;77.64;100546.19;20802748;28;20258;-58
2021/09/09 16:56:51;;;;;;;5.63;4.40;;;;;;;20.23;82.81;100541.66;20793296;28;20233;-59
2021/09/09 17:07:25;;;;;;;7.17;4.93;;;;;;;19.44;88.66;100539.56;20751049;28;20757;-58
2021/09/09 17:18:12;;;;;;;4.60;3.90;;;;;;;18.83;95.17;100549.22;20819048;28;20223;-60
2021/09/09 17:28:51;;;;;;;6.30;5.50;;;;;;;18.33;98.91;100558.34;20781410;28;20706;-65
2021/09/09 17:39:36;;;;;;;9.23;6.80;;;;;;;18.14;100.00;100558.31;20782223;28;20556;-64
2021/09/09 18:00:28;;;;;;;10.50;7.93;;;;;;;17.40;100.00;100565.06;20875996;28;20232;-68
2021/09/09 18:10:59;;;;;;;8.83;7.07;;;;;;;17.00;100.00;100554.28;20879918;28;20277;-71
2021/09/09 18:21:03;;;;;;;7.00;6.30;;;;;;;16.70;100.00;100555.94;20901186;28;20318;-67
2021/09/09 18:31:06;;;;;;;6.20;5.70;;;;;;;16.48;100.00;100564.09;20893434;28;20356;-65
2021/09/09 18:41:12;;;;;;;7.70;7.00;;;;;;;16.29;100.00;100574.75;20842271;28;20227;-64
2021/09/09 18:51:17;;;;;;;6.03;5.43;;;;;;;15.94;100.00;100577.69;20858501;28;20239;-62
2021/09/09 19:01:27;;;;;;;7.40;6.70;;;;;;;15.72;100.00;100573.19;20887760;28;20227;-64
2021/09/09 19:11:31;;;;;;;7.10;6.50;;;;;;;15.67;100.00;100578.09;20916469;28;20227;-68
2021/09/09 19:21:37;;;;;;;8.63;7.43;;;;;;;15.64;100.00;100594.47;20900946;28;20246;-68
2021/09/09 19:31:39;;;;;;;6.93;6.33;;;;;;;15.48;100.00;100584.06;20916556;28;20302;-72
2021/09/09 19:41:44;;;;;;;8.20;7.37;;;;;;;15.24;100.00;100586.88;20915189;28;20211;-68
2021/09/09 19:51:49;;;;;;;9.77;7.13;;;;;;;15.06;100.00;100593.72;20836992;28;20296;-62
2021/09/09 20:01:54;;;;;;;8.47;7.57;;;;;;;14.91;100.00;100600.28;20831100;28;20235;-60
2021/09/09 20:11:56;;;;;;;8.63;7.83;;;;;;;14.67;100.00;100598.53;20820863;28;20240;-61
2021/09/09 20:22:01;;;;;;;7.70;6.97;;;;;;;14.47;100.00;100606.41;20811173;28;20232;-61
2021/09/09 20:32:08;;;;;;;9.10;8.07;;;;;;;14.30;100.00;100604.94;20828463;28;20678;-60
2021/09/09 20:42:12;;;;;;;7.90;7.07;;;;;;;14.22;100.00;100612.72;20817435;28;20286;-67
2021/09/09 20:52:15;;;;;;;8.10;7.30;;;;;;;14.10;100.00;100614.50;20872264;28;20231;-67
2021/09/09 21:02:23;;;;;;;6.83;5.90;;;;;;;13.92;100.00;100608.63;20892897;28;20281;-70
2021/09/09 21:12:29;;;;;;;8.53;7.20;;;;;;;13.81;100.00;100610.41;20907340;28;20294;-68
2021/09/09 21:22:36;;;;;;;7.20;6.50;;;;;;;13.79;100.00;100609.66;20890295;28;20318;-71
2021/09/09 21:32:38;;;;;;;5.90;5.30;;;;;;;13.60;100.00;100608.31;20896858;28;20227;-62
2021/09/09 21:42:42;;;;;;;6.13;4.87;;;;;;;13.42;100.00;100598.03;20908243;28;20255;-63
2021/09/09 21:52:45;;;;;;;5.93;5.43;;;;;;;13.26;100.00;100601.84;20880842;28;20258;-68
2021/09/09 22:02:49;;;;;;;5.17;4.67;;;;;;;13.02;100.00;100608.88;20918702;28;20222;-66
2021/09/09 22:12:52;;;;;;;6.53;5.80;;;;;;;12.68;100.00;100602.31;20900582;28;20589;-65
2021/09/09 22:22:57;;;;;;;6.43;5.83;;;;;;;12.35;100.00;100608.13;20906851;28;20266;-69
2021/09/09 22:32:59;;;;;;;7.63;5.57;;;;;;;12.13;100.00;100586.44;20888557;28;20238;-69
2021/09/09 22:43:04;;;;;;;6.57;6.00;;;;;;;12.00;100.00;100590.88;20915478;28;20253;-72
2021/09/09 22:53:07;;;;;;;7.53;6.93;;;;;;;11.78;100.00;100594.09;20909607;28;20236;-68
2021/09/09 23:03:11;;;;;;;6.67;6.07;;;;;;;11.69;100.00;100582.16;20919818;28;20215;-68
2021/09/09 23:13:13;;;;;;;6.87;6.17;;;;;;;11.48;100.00;100583.53;20918464;28;20312;-69
2021/09/09 23:23:16;;;;;;;10.63;8.50;;;;;;;11.41;100.00;100590.22;20917724;28;20261;-69
2021/09/09 23:33:19;;;;;;;9.57;8.57;;;;;;;11.46;100.00;100588.13;20916832;28;20228;-68
2021/09/09 23:43:22;;;;;;;7.83;7.00;;;;;;;11.44;100.00;100582.88;20916024;28;20228;-68
